createdAt,value
2022-08-27T00:01:38.679Z,22.23
2022-08-27T00:04:05.716Z,24.45
2022-08-27T00:06:32.861Z,18.65
2022-08-27T00:08:59.995Z,18.00
2022-08-27T00:11:26.975Z,23.15
2022-08-27T00:13:55.284Z,23.80
2022-08-27T00:16:22.686Z,25.50
2022-08-27T00:18:50.376Z,23.95
2022-08-27T00:21:18.770Z,21.00
2022-08-27T00:23:46.096Z,17.30
2022-08-27T00:26:15.150Z,15.25
2022-08-27T00:28:43.392Z,16.85
2022-08-27T00:31:12.338Z,16.08
2022-08-27T00:33:40.544Z,20.83
2022-08-27T00:36:08.879Z,18.77
2022-08-27T00:38:38.503Z,16.85
2022-08-27T00:41:09.250Z,18.38
2022-08-27T00:43:49.519Z,20.63
2022-08-27T00:46:39.546Z,24.20
2022-08-27T00:49:52.438Z,17.85
2022-08-27T00:52:39.984Z,15.75
2022-08-27T00:55:17.884Z,20.73
2022-08-27T00:57:50.180Z,19.35
2022-08-27T01:00:19.631Z,17.92
2022-08-27T01:02:48.360Z,15.30
2022-08-27T01:05:20.708Z,16.40
2022-08-27T01:07:56.191Z,18.77
2022-08-27T01:10:26.646Z,19.77
2022-08-27T01:12:54.587Z,17.10
2022-08-27T01:15:26.390Z,16.33
2022-08-27T01:17:54.375Z,17.30
2022-08-27T01:20:35.692Z,16.42
2022-08-27T01:23:29.297Z,13.75
2022-08-27T01:25:57.421Z,13.18
2022-08-27T01:28:29.255Z,12.75
2022-08-27T01:31:08.426Z,12.57
2022-08-27T01:33:35.646Z,12.75
2022-08-27T01:36:04.307Z,14.65
2022-08-27T01:38:31.615Z,16.05
2022-08-27T01:41:00.398Z,17.20
2022-08-27T01:43:31.068Z,14.70
2022-08-27T01:45:58.333Z,12.90
2022-08-27T01:48:25.462Z,15.60
2022-08-27T01:50:52.508Z,13.70
2022-08-27T01:53:23.781Z,16.40
2022-08-27T01:55:52.691Z,12.98
2022-08-27T01:58:26.770Z,14.65
2022-08-27T02:01:00.063Z,14.55
2022-08-27T02:03:27.482Z,13.60
2022-08-27T02:05:54.856Z,14.00
2022-08-27T02:08:22.407Z,12.40
2022-08-27T02:10:50.566Z,15.52
2022-08-27T02:13:18.653Z,14.25
2022-08-27T02:15:45.962Z,12.52
2022-08-27T02:18:13.818Z,13.95
2022-08-27T02:20:44.684Z,14.23
2022-08-27T02:23:12.690Z,13.63
2022-08-27T02:25:39.736Z,14.65
2022-08-27T02:28:09.249Z,10.73
2022-08-27T02:30:37.551Z,11.85
2022-08-27T02:33:05.613Z,10.73
2022-08-27T02:35:35.830Z,13.20
2022-08-27T02:38:03.353Z,11.98
2022-08-27T02:40:30.407Z,12.38
2022-08-27T02:42:57.488Z,12.98
2022-08-27T02:45:24.517Z,11.75
2022-08-27T02:47:51.563Z,10.48
2022-08-27T02:50:18.790Z,11.70
2022-08-27T02:52:46.397Z,15.13
2022-08-27T02:55:14.598Z,13.90
2022-08-27T02:57:45.466Z,11.27
2022-08-27T03:00:18.945Z,11.63
2022-08-27T03:02:46.076Z,10.55
2022-08-27T03:05:14.626Z,13.88
2022-08-27T03:07:42.485Z,12.45
2022-08-27T03:10:13.462Z,10.48
2022-08-27T03:12:41.655Z,16.33
2022-08-27T03:15:13.573Z,22.63
2022-08-27T03:17:59.497Z,20.75
2022-08-27T03:20:27.513Z,16.25
2022-08-27T03:22:54.695Z,16.98
2022-08-27T03:25:22.041Z,14.05
2022-08-27T03:27:49.022Z,18.50
2022-08-27T03:30:21.898Z,20.38
2022-08-27T03:32:48.920Z,21.67
2022-08-27T03:35:17.085Z,19.52
2022-08-27T03:37:44.142Z,17.92
2022-08-27T03:40:12.365Z,15.63
2022-08-27T03:42:41.580Z,17.25
2022-08-27T03:45:10.354Z,19.63
2022-08-27T03:47:37.991Z,17.75
2022-08-27T03:50:07.203Z,18.65
2022-08-27T03:52:35.890Z,23.92
2022-08-27T03:55:06.020Z,17.88
2022-08-27T03:57:33.573Z,21.50
2022-08-27T04:00:01.173Z,17.52
2022-08-27T04:02:28.572Z,19.20
2022-08-27T04:04:57.556Z,18.30
2022-08-27T04:07:24.609Z,19.05
2022-08-27T04:09:51.662Z,16.30
2022-08-27T04:12:18.717Z,21.60
2022-08-27T04:14:45.748Z,24.95
2022-08-27T04:17:13.057Z,18.92
2022-08-27T04:19:40.076Z,20.85
2022-08-27T04:22:08.024Z,16.50
2022-08-27T04:24:37.414Z,21.88
2022-08-27T04:27:05.941Z,15.82
2022-08-27T04:29:33.394Z,20.75
2022-08-27T04:32:01.134Z,22.17
2022-08-27T04:34:28.259Z,22.98
2022-08-27T04:36:57.248Z,20.88
2022-08-27T04:39:27.013Z,27.40
2022-08-27T04:41:57.174Z,22.90
2022-08-27T04:44:31.108Z,20.48
2022-08-27T04:47:04.857Z,15.60
2022-08-27T04:49:33.783Z,15.48
2022-08-27T04:52:01.207Z,17.48
2022-08-27T04:54:32.615Z,16.23
2022-08-27T04:57:03.118Z,13.75
2022-08-27T04:59:31.712Z,14.18
2022-08-27T05:01:59.615Z,13.98
2022-08-27T05:04:26.770Z,12.75
2022-08-27T05:06:54.814Z,14.30
2022-08-27T05:09:24.625Z,10.50
2022-08-27T05:11:55.320Z,9.98
2022-08-27T05:14:24.120Z,11.25
2022-08-27T05:16:51.536Z,12.18
2022-08-27T05:19:18.503Z,11.55
2022-08-27T05:21:49.261Z,11.43
2022-08-27T05:24:17.562Z,11.30
2022-08-27T05:26:45.629Z,11.52
2022-08-27T05:29:14.199Z,12.15
2022-08-27T05:31:42.458Z,11.35
2022-08-27T05:34:15.444Z,10.30
2022-08-27T05:36:52.348Z,9.52
2022-08-27T05:39:19.372Z,10.27
2022-08-27T05:41:46.374Z,11.35
2022-08-27T05:44:39.626Z,8.63
2022-08-27T05:47:03.104Z,10.27
2022-08-27T05:49:31.685Z,11.07
2022-08-27T05:51:58.661Z,13.70
2022-08-27T05:54:25.661Z,9.70
2022-08-27T05:56:52.817Z,10.38
2022-08-27T05:59:38.344Z,10.18
2022-08-27T06:02:06.866Z,10.93
2022-08-27T06:04:34.248Z,11.23
2022-08-27T06:07:01.265Z,11.05
2022-08-27T06:09:29.363Z,8.93
2022-08-27T06:11:58.690Z,10.00
2022-08-27T06:14:26.419Z,9.68
2022-08-27T06:16:53.412Z,13.43
2022-08-27T06:19:20.780Z,14.55
2022-08-27T06:22:00.787Z,16.15
2022-08-27T06:24:38.190Z,16.27
2022-08-27T06:27:05.578Z,17.67
2022-08-27T06:29:33.384Z,14.77
2022-08-27T06:32:00.355Z,14.20
2022-08-27T06:34:27.384Z,12.52
2022-08-27T06:36:54.418Z,11.75
2022-08-27T06:39:21.538Z,11.50
2022-08-27T06:41:50.161Z,10.88
2022-08-27T06:44:22.075Z,10.63
2022-08-27T06:46:49.097Z,14.77
2022-08-27T06:49:16.575Z,12.63
2022-08-27T06:51:46.818Z,11.57
2022-08-27T06:54:15.949Z,14.90
2022-08-27T06:56:44.459Z,13.80
2022-08-27T06:59:15.884Z,10.55
2022-08-27T07:01:47.011Z,16.95
2022-08-27T07:04:21.219Z,13.40
2022-08-27T07:06:49.150Z,16.80
2022-08-27T07:09:17.058Z,12.50
2022-08-27T07:11:44.044Z,13.30
2022-08-27T07:14:11.132Z,15.02
2022-08-27T07:16:40.848Z,14.32
2022-08-27T07:19:08.087Z,11.88
2022-08-27T07:21:35.942Z,15.00
2022-08-27T07:24:05.490Z,12.43
2022-08-27T07:26:39.615Z,11.95
2022-08-27T07:29:08.944Z,12.63
2022-08-27T07:31:36.604Z,11.68
2022-08-27T07:34:05.156Z,11.52
2022-08-27T07:36:34.534Z,8.73
2022-08-27T07:39:02.232Z,11.43
2022-08-27T07:41:53.964Z,12.43
2022-08-27T07:44:28.240Z,9.88
2022-08-27T07:49:29.985Z,10.32
2022-08-27T07:51:57.284Z,15.63
2022-08-27T07:54:25.421Z,12.73
2022-08-27T07:56:55.279Z,17.45
2022-08-27T07:59:24.799Z,15.60
2022-08-27T08:01:52.514Z,14.55
2022-08-27T08:04:20.608Z,14.55
2022-08-27T08:06:49.270Z,13.07
2022-08-27T08:09:16.216Z,15.02
2022-08-27T08:11:43.251Z,15.20
2022-08-27T08:14:10.231Z,15.05
2022-08-27T08:16:37.242Z,14.00
2022-08-27T08:19:04.265Z,13.77
2022-08-27T08:21:31.606Z,17.95
2022-08-27T08:23:58.663Z,16.55
2022-08-27T08:26:25.615Z,13.57
2022-08-27T08:28:52.599Z,13.45
2022-08-27T08:31:19.757Z,14.30
2022-08-27T08:33:48.603Z,15.35
2022-08-27T08:36:17.418Z,16.88
2022-08-27T08:38:47.241Z,16.98
2022-08-27T08:41:43.225Z,15.88
2022-08-27T08:44:32.655Z,17.88
2022-08-27T08:47:16.719Z,16.25
2022-08-27T08:49:47.114Z,16.45
2022-08-27T08:52:47.711Z,14.82
2022-08-27T08:55:51.944Z,12.82
2022-08-27T08:58:51.383Z,16.52
2022-08-27T09:01:21.460Z,17.17
2022-08-27T09:04:02.519Z,14.38
2022-08-27T09:06:55.031Z,13.65
2022-08-27T09:09:32.296Z,11.70
2022-08-27T09:12:05.666Z,14.40
2022-08-27T09:14:46.318Z,18.48
2022-08-27T09:17:13.840Z,15.13
2022-08-27T09:19:41.624Z,14.43
2022-08-27T09:22:33.477Z,14.82
2022-08-27T09:25:33.053Z,17.63
2022-08-27T09:28:06.438Z,13.48
2022-08-27T09:30:43.080Z,11.60
2022-08-27T09:33:10.812Z,14.40
2022-08-27T09:35:46.824Z,13.30
2022-08-27T09:38:33.954Z,16.60
2022-08-27T09:41:17.442Z,14.38
2022-08-27T09:43:45.093Z,14.60
2022-08-27T09:46:22.342Z,12.57
2022-08-27T09:48:52.217Z,13.77
2022-08-27T09:51:28.172Z,14.90
2022-08-27T09:54:03.132Z,11.85
2022-08-27T09:56:47.152Z,13.00
2022-08-27T09:59:24.571Z,16.75
2022-08-27T10:02:04.357Z,12.68
2022-08-27T10:04:50.410Z,13.45
2022-08-27T10:07:37.953Z,12.77
2022-08-27T10:10:30.142Z,15.07
2022-08-27T10:13:18.548Z,13.70
2022-08-27T10:16:26.177Z,15.85
2022-08-27T10:19:35.620Z,11.88
2022-08-27T10:22:31.920Z,9.60
2022-08-27T10:25:39.531Z,11.13
2022-08-27T10:28:22.507Z,12.82
2022-08-27T10:31:25.145Z,11.85
2022-08-27T10:34:12.527Z,12.27
2022-08-27T10:36:59.313Z,11.93
2022-08-27T10:40:16.047Z,11.25
2022-08-27T10:43:27.344Z,13.05
2022-08-27T10:46:50.357Z,12.75
2022-08-27T10:49:38.930Z,11.73
2022-08-27T10:52:32.246Z,15.07
2022-08-27T10:55:45.434Z,12.32
2022-08-27T10:58:34.168Z,9.85
2022-08-27T11:01:48.527Z,13.13
2022-08-27T11:04:29.288Z,14.93
2022-08-27T11:07:05.304Z,10.98
2022-08-27T11:10:10.444Z,14.55
2022-08-27T11:12:44.376Z,11.82
2022-08-27T11:15:36.730Z,14.18
2022-08-27T11:18:42.361Z,13.60
2022-08-27T11:21:34.523Z,12.68
2022-08-27T11:24:35.247Z,14.77
2022-08-27T11:27:07.523Z,12.32
2022-08-27T11:29:53.287Z,10.77
2022-08-27T11:33:01.417Z,9.70
2022-08-27T11:36:20.748Z,11.15
2022-08-27T11:39:28.126Z,16.33
2022-08-27T11:42:25.555Z,14.40
2022-08-27T11:45:04.669Z,10.07
2022-08-27T11:47:32.881Z,12.68
2022-08-27T11:50:10.329Z,13.10
2022-08-27T11:52:54.796Z,13.57
2022-08-27T11:55:21.595Z,12.90
2022-08-27T11:58:53.427Z,8.77
2022-08-27T12:01:31.559Z,15.65
2022-08-27T12:04:30.954Z,11.10
2022-08-27T12:07:16.754Z,10.40
2022-08-27T12:10:26.949Z,12.05
2022-08-27T12:13:13.081Z,10.73
2022-08-27T12:16:07.012Z,9.63
2022-08-27T12:18:49.483Z,11.15
2022-08-27T12:21:39.377Z,11.35
2022-08-27T12:24:27.199Z,10.90
2022-08-27T12:27:12.938Z,10.27
2022-08-27T12:29:53.042Z,9.38
2022-08-27T12:32:35.782Z,8.68
2022-08-27T12:35:22.852Z,10.52
2022-08-27T12:38:17.566Z,9.77
2022-08-27T12:40:57.552Z,12.43
2022-08-27T12:43:28.841Z,9.85
2022-08-27T12:46:02.139Z,10.88
2022-08-27T12:48:37.602Z,12.10
2022-08-27T12:51:14.087Z,10.65
2022-08-27T12:53:54.346Z,9.18
2022-08-27T12:57:14.005Z,8.82
2022-08-27T13:00:19.586Z,10.63
2022-08-27T13:02:58.929Z,10.57
2022-08-27T13:05:26.328Z,10.25
2022-08-27T13:07:54.388Z,12.45
2022-08-27T13:10:31.017Z,10.65
2022-08-27T13:13:21.240Z,8.40
2022-08-27T13:15:55.639Z,11.05
2022-08-27T13:18:24.580Z,9.43
2022-08-27T13:21:17.013Z,9.32
2022-08-27T13:24:01.481Z,9.48
2022-08-27T13:26:37.315Z,11.45
2022-08-27T13:29:07.424Z,10.80
2022-08-27T13:31:35.709Z,10.95
2022-08-27T13:34:06.609Z,12.18
2022-08-27T13:37:04.028Z,10.48
2022-08-27T13:39:32.764Z,11.27
2022-08-27T13:42:03.656Z,9.95
2022-08-27T13:44:37.591Z,8.88
2022-08-27T13:47:07.986Z,9.57
2022-08-27T13:52:27.379Z,8.27
2022-08-27T13:55:15.719Z,10.23
2022-08-27T13:57:51.344Z,8.60
2022-08-27T14:00:27.101Z,11.27
2022-08-27T14:02:56.339Z,8.65
2022-08-27T14:05:23.426Z,7.27
2022-08-27T14:07:58.594Z,7.45
2022-08-27T14:10:41.146Z,7.28
2022-08-27T14:13:10.927Z,9.35
2022-08-27T14:19:09.393Z,9.20
2022-08-27T14:21:40.900Z,8.20
2022-08-27T14:24:08.458Z,6.90
2022-08-27T14:26:35.934Z,8.57
2022-08-27T14:29:03.072Z,6.88
2022-08-27T14:31:38.863Z,8.85
2022-08-27T14:34:08.262Z,10.20
2022-08-27T14:36:39.694Z,7.13
2022-08-27T14:39:08.128Z,9.13
2022-08-27T14:41:36.044Z,6.13
2022-08-27T14:44:03.580Z,6.25
2022-08-27T14:46:36.395Z,7.07
2022-08-27T14:49:21.995Z,10.40
2022-08-27T14:51:49.195Z,8.48
2022-08-27T14:54:16.157Z,7.07
2022-08-27T14:56:43.241Z,6.00
2022-08-27T14:59:10.243Z,7.20
2022-08-27T15:01:38.014Z,7.65
2022-08-27T15:04:05.974Z,7.07
2022-08-27T15:06:33.506Z,13.85
2022-08-27T15:09:00.638Z,13.35
2022-08-27T15:11:34.530Z,11.35
2022-08-27T15:14:05.178Z,9.32
2022-08-27T15:16:35.905Z,7.80
2022-08-27T15:19:04.903Z,6.93
2022-08-27T15:21:31.943Z,7.07
2022-08-27T15:24:02.910Z,8.50
2022-08-27T15:26:30.431Z,8.85
2022-08-27T15:28:57.511Z,11.90
2022-08-27T15:31:24.791Z,10.05
2022-08-27T15:33:51.900Z,9.70
2022-08-27T15:36:18.896Z,6.50
2022-08-27T15:38:45.891Z,7.00
2022-08-27T15:41:12.904Z,8.43
2022-08-27T15:43:40.407Z,7.05
2022-08-27T15:46:07.611Z,7.30
2022-08-27T15:48:34.748Z,6.40
2022-08-27T15:51:08.964Z,7.60
2022-08-27T15:53:38.021Z,5.75
2022-08-27T15:56:08.024Z,6.25
2022-08-27T15:58:38.348Z,7.65
2022-08-27T16:03:43.533Z,5.85
2022-08-27T16:06:10.651Z,6.55
2022-08-27T16:08:42.035Z,5.68
2022-08-27T16:11:09.804Z,5.57
2022-08-27T16:13:37.792Z,7.45
2022-08-27T16:16:06.862Z,6.22
2022-08-27T16:18:35.176Z,5.50
2022-08-27T16:21:04.602Z,7.07
2022-08-27T16:23:33.027Z,5.50
2022-08-27T16:26:00.476Z,7.78
2022-08-27T16:28:27.659Z,4.72
2022-08-27T16:30:56.294Z,6.97
2022-08-27T16:33:24.131Z,5.35
2022-08-27T16:35:52.476Z,8.45
2022-08-27T16:38:19.712Z,5.60
2022-08-27T16:40:53.240Z,6.20
2022-08-27T16:43:28.476Z,4.80
2022-08-27T16:45:59.167Z,6.18
2022-08-27T16:48:45.595Z,7.25
2022-08-27T16:51:32.674Z,9.40
2022-08-27T16:54:04.877Z,6.00
2022-08-27T16:56:37.123Z,6.78
2022-08-27T16:59:05.716Z,6.25
2022-08-27T17:01:33.613Z,5.20
2022-08-27T17:04:10.146Z,5.57
2022-08-27T17:06:42.374Z,7.35
2022-08-27T17:09:10.416Z,5.60
2022-08-27T17:11:41.827Z,6.97
2022-08-27T17:14:10.744Z,4.72
2022-08-27T17:16:40.340Z,5.55
2022-08-27T17:19:09.606Z,5.40
2022-08-27T17:21:37.419Z,4.07
2022-08-27T17:24:05.408Z,2.85
2022-08-27T17:26:39.582Z,4.97
2022-08-27T17:29:06.535Z,4.85
2022-08-27T17:31:38.259Z,3.63
2022-08-27T17:34:07.286Z,3.30
2022-08-27T17:36:34.739Z,3.20
2022-08-27T17:39:02.978Z,4.47
2022-08-27T17:41:38.791Z,3.97
2022-08-27T17:44:31.613Z,3.75
2022-08-27T17:47:01.632Z,4.57
2022-08-27T17:49:31.078Z,3.67
2022-08-27T17:52:02.483Z,2.50
2022-08-27T17:54:36.049Z,3.05
2022-08-27T17:57:29.835Z,2.92
2022-08-27T18:00:10.528Z,2.42
2022-08-27T18:02:45.342Z,3.42
2022-08-27T18:05:14.925Z,2.72
2022-08-27T18:07:43.124Z,2.40
2022-08-27T18:10:14.683Z,4.25
2022-08-27T18:12:42.996Z,2.85
2022-08-27T18:15:28.049Z,2.70
2022-08-27T18:17:56.930Z,2.58
2022-08-27T18:20:27.717Z,2.35
2022-08-27T18:22:55.084Z,3.30
2022-08-27T18:25:25.714Z,4.93
2022-08-27T18:27:57.513Z,3.42
2022-08-27T18:30:25.640Z,3.45
2022-08-27T18:32:53.131Z,3.30
2022-08-27T18:35:31.343Z,3.70
2022-08-27T18:37:58.679Z,4.28
2022-08-27T18:40:30.791Z,3.83
2022-08-27T18:42:58.414Z,3.58
2022-08-27T18:45:28.418Z,3.35
2022-08-27T18:47:58.867Z,3.50
2022-08-27T18:50:27.236Z,5.00
2022-08-27T18:52:56.540Z,4.55
2022-08-27T18:55:27.966Z,4.40
2022-08-27T18:57:55.068Z,3.67
2022-08-27T19:00:22.234Z,4.38
2022-08-27T19:02:52.599Z,3.28
2022-08-27T19:05:26.695Z,5.78
2022-08-27T19:07:55.930Z,3.47
2022-08-27T19:10:23.182Z,3.75
2022-08-27T19:12:50.151Z,3.80
2022-08-27T19:15:17.508Z,4.97
2022-08-27T19:17:53.504Z,4.47
2022-08-27T19:20:20.817Z,7.78
2022-08-27T19:22:48.737Z,5.40
2022-08-27T19:25:17.692Z,5.40
2022-08-27T19:27:46.482Z,4.45
2022-08-27T19:30:16.187Z,7.45
2022-08-27T19:32:43.958Z,4.57
2022-08-27T19:35:11.239Z,4.57
2022-08-27T19:37:52.629Z,4.43
2022-08-27T19:40:22.271Z,5.13
2022-08-27T19:42:50.209Z,8.23
2022-08-27T19:45:23.323Z,5.30
2022-08-27T19:47:52.942Z,6.57
2022-08-27T19:50:22.181Z,5.53
2022-08-27T19:52:50.647Z,5.13
2022-08-27T19:55:17.756Z,4.65
2022-08-27T19:57:45.192Z,5.68
2022-08-27T20:00:16.702Z,4.95
2022-08-27T20:02:43.652Z,6.30
2022-08-27T20:05:19.220Z,6.30
2022-08-27T20:07:49.326Z,5.32
2022-08-27T20:10:18.328Z,4.88
2022-08-27T20:12:45.417Z,4.97
2022-08-27T20:15:13.572Z,5.25
2022-08-27T20:17:40.988Z,7.20
2022-08-27T20:20:08.922Z,5.97
2022-08-27T20:22:36.068Z,6.07
2022-08-27T20:25:03.557Z,6.05
2022-08-27T20:27:30.547Z,5.88
2022-08-27T20:29:58.078Z,5.20
2022-08-27T20:32:29.822Z,5.10
2022-08-27T20:34:57.728Z,5.10
2022-08-27T20:37:25.300Z,5.68
2022-08-27T20:39:52.542Z,7.50
2022-08-27T20:42:20.428Z,4.68
2022-08-27T20:44:48.599Z,4.57
2022-08-27T20:47:17.363Z,4.20
2022-08-27T20:49:44.558Z,4.28
2022-08-27T20:52:14.793Z,4.40
2022-08-27T20:54:42.086Z,4.32
2022-08-27T20:57:09.399Z,4.63
2022-08-27T20:59:55.856Z,4.07
2022-08-27T21:02:26.670Z,4.70
2022-08-27T21:04:54.642Z,5.20
2022-08-27T21:07:23.298Z,5.53
2022-08-27T21:09:56.111Z,5.38
2022-08-27T21:12:28.268Z,4.70
2022-08-27T21:14:56.630Z,6.03
2022-08-27T21:17:27.082Z,4.43
2022-08-27T21:19:55.014Z,4.90
2022-08-27T21:22:23.745Z,6.65
2022-08-27T21:24:51.647Z,5.18
2022-08-27T21:27:21.196Z,5.65
2022-08-27T21:29:49.254Z,5.60
2022-08-27T21:32:17.357Z,4.30
2022-08-27T21:34:44.657Z,4.93
2022-08-27T21:37:14.104Z,4.07
2022-08-27T21:39:42.992Z,4.13
2022-08-27T21:42:12.442Z,4.70
2022-08-27T21:44:39.570Z,4.78
2022-08-27T21:47:06.980Z,4.15
2022-08-27T21:49:34.732Z,3.90
2022-08-27T21:52:05.803Z,4.13
2022-08-27T21:54:40.018Z,5.32
2022-08-27T21:57:07.875Z,4.10
2022-08-27T21:59:43.083Z,3.80
2022-08-27T22:02:35.925Z,3.47
2022-08-27T22:04:57.453Z,6.18
2022-08-27T22:07:24.597Z,3.05
2022-08-27T22:09:51.544Z,3.80
2022-08-27T22:12:18.702Z,3.47
2022-08-27T22:14:45.736Z,3.70
2022-08-27T22:17:15.721Z,3.75
2022-08-27T22:19:43.097Z,3.95
2022-08-27T22:22:10.285Z,3.38
2022-08-27T22:24:37.314Z,5.30
2022-08-27T22:27:04.577Z,5.10
2022-08-27T22:29:31.639Z,4.32
2022-08-27T22:31:58.915Z,4.05
2022-08-27T22:34:26.112Z,4.93
2022-08-27T22:36:53.135Z,6.70
2022-08-27T22:39:20.356Z,6.18
2022-08-27T22:41:49.100Z,7.30
2022-08-27T22:44:16.560Z,6.78
2022-08-27T22:46:43.584Z,5.88
2022-08-27T22:49:10.707Z,6.30
2022-08-27T22:51:37.724Z,8.40
2022-08-27T22:54:05.286Z,10.07
2022-08-27T22:56:32.255Z,6.22
2022-08-27T22:58:59.535Z,6.82
2022-08-27T23:01:26.672Z,6.70
2022-08-27T23:03:54.715Z,7.15
2022-08-27T23:06:21.962Z,7.28
2022-08-27T23:08:48.914Z,6.47
2022-08-27T23:11:16.017Z,6.25
2022-08-27T23:13:43.064Z,6.97
2022-08-27T23:16:10.265Z,6.97
2022-08-27T23:18:39.736Z,6.13
2022-08-27T23:21:07.747Z,6.95
2022-08-27T23:23:35.899Z,7.75
2022-08-27T23:26:22.265Z,7.32
2022-08-27T23:28:49.290Z,5.75
2022-08-27T23:31:16.588Z,6.18
2022-08-27T23:33:43.687Z,5.97
2022-08-27T23:36:10.781Z,7.03
2022-08-27T23:38:37.872Z,6.95
2022-08-27T23:41:05.683Z,7.15
2022-08-27T23:43:32.620Z,6.13
2022-08-27T23:45:59.657Z,8.13
2022-08-27T23:48:26.743Z,8.07
2022-08-27T23:50:53.724Z,8.40
2022-08-27T23:53:20.777Z,7.10
2022-08-27T23:55:47.788Z,5.78
2022-08-27T23:58:15.017Z,5.70
